sensor_id;sensor_type;location;lat;lon;timestamp;P1;durP1;ratioP1;P2;durP2;ratioP2
76351;SDS011;65179;47.786;19.138;2023-04-15T00:01:20;9.23;;;5.07;;
76351;SDS011;65179;47.786;19.138;2023-04-15T00:03:46;8.00;;;4.25;;
76351;SDS011;65179;47.786;19.138;2023-04-15T00:06:12;8.25;;;5.22;;
76351;SDS011;65179;47.786;19.138;2023-04-15T00:08:38;7.80;;;4.57;;
76351;SDS011;65179;47.786;19.138;2023-04-15T00:11:03;9.32;;;5.15;;
76351;SDS011;65179;47.786;19.138;2023-04-15T00:13:32;7.28;;;4.28;;
76351;SDS011;65179;47.786;19.138;2023-04-15T00:15:58;8.27;;;5.20;;
76351;SDS011;65179;47.786;19.138;2023-04-15T00:18:24;8.10;;;4.50;;
76351;SDS011;65179;47.786;19.138;2023-04-15T00:20:50;8.85;;;5.10;;
76351;SDS011;65179;47.786;19.138;2023-04-15T00:23:16;8.57;;;4.62;;
76351;SDS011;65179;47.786;19.138;2023-04-15T00:25:42;8.73;;;4.62;;
76351;SDS011;65179;47.786;19.138;2023-04-15T00:28:07;8.20;;;4.80;;
76351;SDS011;65179;47.786;19.138;2023-04-15T00:30:33;8.18;;;4.47;;
76351;SDS011;65179;47.786;19.138;2023-04-15T00:32:59;9.87;;;4.57;;
76351;SDS011;65179;47.786;19.138;2023-04-15T00:35:26;8.55;;;5.20;;
76351;SDS011;65179;47.786;19.138;2023-04-15T00:37:52;9.17;;;4.97;;
76351;SDS011;65179;47.786;19.138;2023-04-15T00:40:18;8.57;;;4.90;;
76351;SDS011;65179;47.786;19.138;2023-04-15T00:42:45;7.70;;;4.05;;
76351;SDS011;65179;47.786;19.138;2023-04-15T00:45:11;7.75;;;4.28;;
76351;SDS011;65179;47.786;19.138;2023-04-15T00:47:36;8.63;;;4.50;;
76351;SDS011;65179;47.786;19.138;2023-04-15T00:50:05;8.07;;;4.18;;
76351;SDS011;65179;47.786;19.138;2023-04-15T00:52:31;8.90;;;4.82;;
76351;SDS011;65179;47.786;19.138;2023-04-15T00:54:57;8.00;;;4.60;;
76351;SDS011;65179;47.786;19.138;2023-04-15T00:57:23;9.68;;;5.35;;
76351;SDS011;65179;47.786;19.138;2023-04-15T00:59:50;9.95;;;5.25;;
76351;SDS011;65179;47.786;19.138;2023-04-15T01:02:17;7.62;;;4.32;;
76351;SDS011;65179;47.786;19.138;2023-04-15T01:04:43;8.23;;;4.77;;
76351;SDS011;65179;47.786;19.138;2023-04-15T01:07:09;8.93;;;4.43;;
76351;SDS011;65179;47.786;19.138;2023-04-15T01:09:35;9.90;;;4.70;;
76351;SDS011;65179;47.786;19.138;2023-04-15T01:12:00;10.27;;;4.80;;
76351;SDS011;65179;47.786;19.138;2023-04-15T01:14:26;8.63;;;4.72;;
76351;SDS011;65179;47.786;19.138;2023-04-15T01:16:53;8.32;;;5.03;;
76351;SDS011;65179;47.786;19.138;2023-04-15T01:19:18;8.97;;;4.60;;
76351;SDS011;65179;47.786;19.138;2023-04-15T01:21:44;7.68;;;4.30;;
76351;SDS011;65179;47.786;19.138;2023-04-15T01:24:10;8.00;;;4.27;;
76351;SDS011;65179;47.786;19.138;2023-04-15T01:26:37;8.88;;;4.00;;
76351;SDS011;65179;47.786;19.138;2023-04-15T01:29:04;7.40;;;4.07;;
76351;SDS011;65179;47.786;19.138;2023-04-15T01:31:29;7.97;;;4.30;;
76351;SDS011;65179;47.786;19.138;2023-04-15T01:33:55;7.00;;;4.07;;
76351;SDS011;65179;47.786;19.138;2023-04-15T01:36:20;7.43;;;4.00;;
76351;SDS011;65179;47.786;19.138;2023-04-15T01:38:46;7.70;;;3.70;;
76351;SDS011;65179;47.786;19.138;2023-04-15T01:41:12;8.30;;;4.07;;
76351;SDS011;65179;47.786;19.138;2023-04-15T01:43:38;7.18;;;3.67;;
76351;SDS011;65179;47.786;19.138;2023-04-15T01:46:04;8.75;;;4.70;;
76351;SDS011;65179;47.786;19.138;2023-04-15T01:48:30;7.65;;;4.40;;
76351;SDS011;65179;47.786;19.138;2023-04-15T01:50:56;9.20;;;3.90;;
76351;SDS011;65179;47.786;19.138;2023-04-15T01:53:25;8.02;;;3.92;;
76351;SDS011;65179;47.786;19.138;2023-04-15T01:55:51;9.45;;;4.18;;
76351;SDS011;65179;47.786;19.138;2023-04-15T01:58:17;8.07;;;4.43;;
76351;SDS011;65179;47.786;19.138;2023-04-15T02:00:43;8.07;;;4.22;;
76351;SDS011;65179;47.786;19.138;2023-04-15T02:03:09;7.20;;;3.80;;
76351;SDS011;65179;47.786;19.138;2023-04-15T02:05:34;8.63;;;4.17;;
76351;SDS011;65179;47.786;19.138;2023-04-15T02:08:00;7.80;;;4.13;;
76351;SDS011;65179;47.786;19.138;2023-04-15T02:10:26;7.78;;;4.20;;
76351;SDS011;65179;47.786;19.138;2023-04-15T02:12:51;7.43;;;4.03;;
76351;SDS011;65179;47.786;19.138;2023-04-15T02:15:18;7.70;;;4.37;;
76351;SDS011;65179;47.786;19.138;2023-04-15T02:17:44;7.55;;;4.10;;
76351;SDS011;65179;47.786;19.138;2023-04-15T02:20:14;9.07;;;4.43;;
76351;SDS011;65179;47.786;19.138;2023-04-15T02:22:40;7.75;;;3.92;;
76351;SDS011;65179;47.786;19.138;2023-04-15T02:25:06;8.68;;;4.93;;
76351;SDS011;65179;47.786;19.138;2023-04-15T02:27:32;9.00;;;4.90;;
76351;SDS011;65179;47.786;19.138;2023-04-15T02:29:57;8.90;;;5.03;;
76351;SDS011;65179;47.786;19.138;2023-04-15T02:32:23;9.73;;;5.70;;
76351;SDS011;65179;47.786;19.138;2023-04-15T02:34:48;9.87;;;6.07;;
76351;SDS011;65179;47.786;19.138;2023-04-15T02:37:14;10.80;;;5.70;;
76351;SDS011;65179;47.786;19.138;2023-04-15T02:39:40;9.82;;;5.30;;
76351;SDS011;65179;47.786;19.138;2023-04-15T02:42:05;9.77;;;5.60;;
76351;SDS011;65179;47.786;19.138;2023-04-15T02:44:31;11.30;;;6.10;;
76351;SDS011;65179;47.786;19.138;2023-04-15T02:46:58;11.13;;;5.80;;
76351;SDS011;65179;47.786;19.138;2023-04-15T02:49:23;12.05;;;6.37;;
76351;SDS011;65179;47.786;19.138;2023-04-15T02:51:50;10.70;;;6.15;;
76351;SDS011;65179;47.786;19.138;2023-04-15T02:54:19;11.77;;;6.75;;
76351;SDS011;65179;47.786;19.138;2023-04-15T02:56:45;9.77;;;5.68;;
76351;SDS011;65179;47.786;19.138;2023-04-15T02:59:11;11.80;;;6.60;;
76351;SDS011;65179;47.786;19.138;2023-04-15T03:01:36;9.80;;;5.72;;
76351;SDS011;65179;47.786;19.138;2023-04-15T03:04:02;10.30;;;5.53;;
76351;SDS011;65179;47.786;19.138;2023-04-15T03:06:27;10.23;;;6.00;;
76351;SDS011;65179;47.786;19.138;2023-04-15T03:08:53;10.97;;;6.17;;
76351;SDS011;65179;47.786;19.138;2023-04-15T03:11:18;11.13;;;6.47;;
76351;SDS011;65179;47.786;19.138;2023-04-15T03:13:44;10.13;;;5.67;;
76351;SDS011;65179;47.786;19.138;2023-04-15T03:16:09;11.80;;;6.28;;
76351;SDS011;65179;47.786;19.138;2023-04-15T03:18:35;11.33;;;6.07;;
76351;SDS011;65179;47.786;19.138;2023-04-15T03:21:00;11.98;;;6.25;;
76351;SDS011;65179;47.786;19.138;2023-04-15T03:23:26;11.60;;;6.30;;
76351;SDS011;65179;47.786;19.138;2023-04-15T03:25:52;10.73;;;6.07;;
76351;SDS011;65179;47.786;19.138;2023-04-15T03:28:20;10.70;;;6.53;;
76351;SDS011;65179;47.786;19.138;2023-04-15T03:30:45;13.20;;;6.73;;
76351;SDS011;65179;47.786;19.138;2023-04-15T03:33:10;10.47;;;5.87;;
76351;SDS011;65179;47.786;19.138;2023-04-15T03:35:36;10.47;;;5.53;;
76351;SDS011;65179;47.786;19.138;2023-04-15T03:38:02;11.35;;;5.78;;
76351;SDS011;65179;47.786;19.138;2023-04-15T03:40:27;10.07;;;5.80;;
76351;SDS011;65179;47.786;19.138;2023-04-15T03:42:53;9.63;;;6.00;;
76351;SDS011;65179;47.786;19.138;2023-04-15T03:45:18;9.83;;;5.77;;
76351;SDS011;65179;47.786;19.138;2023-04-15T03:47:43;12.00;;;5.90;;
76351;SDS011;65179;47.786;19.138;2023-04-15T03:50:09;10.93;;;6.40;;
76351;SDS011;65179;47.786;19.138;2023-04-15T03:52:35;9.15;;;5.43;;
76351;SDS011;65179;47.786;19.138;2023-04-15T03:55:00;13.03;;;6.23;;
76351;SDS011;65179;47.786;19.138;2023-04-15T03:57:26;11.30;;;5.80;;
76351;SDS011;65179;47.786;19.138;2023-04-15T03:59:51;10.60;;;5.80;;
76351;SDS011;65179;47.786;19.138;2023-04-15T04:02:17;11.40;;;6.37;;
76351;SDS011;65179;47.786;19.138;2023-04-15T04:04:42;12.27;;;6.27;;
76351;SDS011;65179;47.786;19.138;2023-04-15T04:07:08;13.82;;;6.87;;
76351;SDS011;65179;47.786;19.138;2023-04-15T04:09:39;12.33;;;6.57;;
76351;SDS011;65179;47.786;19.138;2023-04-15T04:12:06;10.88;;;5.95;;
76351;SDS011;65179;47.786;19.138;2023-04-15T04:14:31;14.13;;;7.30;;
76351;SDS011;65179;47.786;19.138;2023-04-15T04:16:57;11.47;;;6.90;;
76351;SDS011;65179;47.786;19.138;2023-04-15T04:19:22;12.33;;;7.07;;
76351;SDS011;65179;47.786;19.138;2023-04-15T04:21:47;12.17;;;6.20;;
76351;SDS011;65179;47.786;19.138;2023-04-15T04:24:13;11.70;;;6.50;;
76351;SDS011;65179;47.786;19.138;2023-04-15T04:26:38;13.40;;;7.25;;
76351;SDS011;65179;47.786;19.138;2023-04-15T04:29:04;12.53;;;6.77;;
76351;SDS011;65179;47.786;19.138;2023-04-15T04:31:29;12.17;;;6.67;;
76351;SDS011;65179;47.786;19.138;2023-04-15T04:33:54;12.23;;;7.00;;
76351;SDS011;65179;47.786;19.138;2023-04-15T04:36:20;11.30;;;7.07;;
76351;SDS011;65179;47.786;19.138;2023-04-15T04:38:45;12.27;;;6.73;;
76351;SDS011;65179;47.786;19.138;2023-04-15T04:41:11;12.00;;;7.07;;
76351;SDS011;65179;47.786;19.138;2023-04-15T04:43:36;11.37;;;6.90;;
76351;SDS011;65179;47.786;19.138;2023-04-15T04:46:02;11.03;;;6.80;;
76351;SDS011;65179;47.786;19.138;2023-04-15T04:48:27;11.60;;;6.57;;
76351;SDS011;65179;47.786;19.138;2023-04-15T04:50:52;10.73;;;6.23;;
76351;SDS011;65179;47.786;19.138;2023-04-15T04:53:18;12.87;;;7.03;;
76351;SDS011;65179;47.786;19.138;2023-04-15T04:55:43;11.83;;;6.63;;
76351;SDS011;65179;47.786;19.138;2023-04-15T04:58:09;11.32;;;6.40;;
76351;SDS011;65179;47.786;19.138;2023-04-15T05:00:35;12.52;;;6.95;;
76351;SDS011;65179;47.786;19.138;2023-04-15T05:03:02;12.50;;;6.47;;
76351;SDS011;65179;47.786;19.138;2023-04-15T05:05:28;10.40;;;6.50;;
76351;SDS011;65179;47.786;19.138;2023-04-15T05:07:53;11.67;;;6.60;;
76351;SDS011;65179;47.786;19.138;2023-04-15T05:10:19;10.27;;;6.20;;
76351;SDS011;65179;47.786;19.138;2023-04-15T05:12:44;11.93;;;6.70;;
76351;SDS011;65179;47.786;19.138;2023-04-15T05:15:09;11.00;;;6.80;;
76351;SDS011;65179;47.786;19.138;2023-04-15T05:17:35;10.80;;;6.63;;
76351;SDS011;65179;47.786;19.138;2023-04-15T05:20:01;14.25;;;6.95;;
76351;SDS011;65179;47.786;19.138;2023-04-15T05:22:27;12.23;;;7.62;;
76351;SDS011;65179;47.786;19.138;2023-04-15T05:24:53;12.32;;;7.97;;
76351;SDS011;65179;47.786;19.138;2023-04-15T05:27:18;14.17;;;8.10;;
76351;SDS011;65179;47.786;19.138;2023-04-15T05:29:44;13.07;;;7.70;;
76351;SDS011;65179;47.786;19.138;2023-04-15T05:32:09;12.18;;;7.97;;
76351;SDS011;65179;47.786;19.138;2023-04-15T05:34:35;15.67;;;7.87;;
76351;SDS011;65179;47.786;19.138;2023-04-15T05:37:01;13.55;;;7.65;;
76351;SDS011;65179;47.786;19.138;2023-04-15T05:39:26;14.53;;;7.93;;
76351;SDS011;65179;47.786;19.138;2023-04-15T05:41:52;11.90;;;7.20;;
76351;SDS011;65179;47.786;19.138;2023-04-15T05:44:17;12.00;;;7.17;;
76351;SDS011;65179;47.786;19.138;2023-04-15T05:46:43;11.23;;;6.50;;
76351;SDS011;65179;47.786;19.138;2023-04-15T05:49:08;11.68;;;7.18;;
76351;SDS011;65179;47.786;19.138;2023-04-15T05:51:33;12.33;;;6.33;;
76351;SDS011;65179;47.786;19.138;2023-04-15T05:53:59;11.10;;;6.68;;
76351;SDS011;65179;47.786;19.138;2023-04-15T05:56:25;11.20;;;6.30;;
76351;SDS011;65179;47.786;19.138;2023-04-15T05:58:51;10.57;;;6.00;;
76351;SDS011;65179;47.786;19.138;2023-04-15T06:01:17;11.80;;;7.47;;
76351;SDS011;65179;47.786;19.138;2023-04-15T06:03:42;11.50;;;6.20;;
76351;SDS011;65179;47.786;19.138;2023-04-15T06:06:08;11.90;;;5.90;;
76351;SDS011;65179;47.786;19.138;2023-04-15T06:08:34;10.43;;;6.57;;
76351;SDS011;65179;47.786;19.138;2023-04-15T06:10:59;10.67;;;6.93;;
76351;SDS011;65179;47.786;19.138;2023-04-15T06:13:25;10.13;;;5.97;;
76351;SDS011;65179;47.786;19.138;2023-04-15T06:15:51;10.68;;;6.07;;
76351;SDS011;65179;47.786;19.138;2023-04-15T06:18:17;12.82;;;6.78;;
76351;SDS011;65179;47.786;19.138;2023-04-15T06:20:43;11.35;;;6.28;;
76351;SDS011;65179;47.786;19.138;2023-04-15T06:23:09;12.40;;;6.53;;
76351;SDS011;65179;47.786;19.138;2023-04-15T06:25:34;11.90;;;6.40;;
76351;SDS011;65179;47.786;19.138;2023-04-15T06:28:00;9.73;;;6.20;;
76351;SDS011;65179;47.786;19.138;2023-04-15T06:30:25;12.33;;;6.70;;
76351;SDS011;65179;47.786;19.138;2023-04-15T06:32:51;11.10;;;6.10;;
76351;SDS011;65179;47.786;19.138;2023-04-15T06:35:16;11.47;;;6.77;;
76351;SDS011;65179;47.786;19.138;2023-04-15T06:37:42;12.20;;;6.70;;
76351;SDS011;65179;47.786;19.138;2023-04-15T06:40:07;9.43;;;6.53;;
76351;SDS011;65179;47.786;19.138;2023-04-15T06:42:34;11.20;;;6.12;;
76351;SDS011;65179;47.786;19.138;2023-04-15T06:45:00;10.63;;;6.05;;
76351;SDS011;65179;47.786;19.138;2023-04-15T06:47:26;11.73;;;6.40;;
76351;SDS011;65179;47.786;19.138;2023-04-15T06:49:51;9.63;;;5.93;;
76351;SDS011;65179;47.786;19.138;2023-04-15T06:52:17;11.57;;;6.23;;
76351;SDS011;65179;47.786;19.138;2023-04-15T06:54:42;10.77;;;6.25;;
76351;SDS011;65179;47.786;19.138;2023-04-15T06:57:08;10.73;;;6.53;;
76351;SDS011;65179;47.786;19.138;2023-04-15T06:59:33;10.03;;;5.63;;
76351;SDS011;65179;47.786;19.138;2023-04-15T07:01:59;9.73;;;5.90;;
76351;SDS011;65179;47.786;19.138;2023-04-15T07:04:25;10.77;;;5.93;;
76351;SDS011;65179;47.786;19.138;2023-04-15T07:06:52;9.75;;;6.00;;
76351;SDS011;65179;47.786;19.138;2023-04-15T07:09:18;10.27;;;5.68;;
76351;SDS011;65179;47.786;19.138;2023-04-15T07:11:43;9.30;;;5.50;;
76351;SDS011;65179;47.786;19.138;2023-04-15T07:14:09;10.05;;;5.78;;
76351;SDS011;65179;47.786;19.138;2023-04-15T07:16:36;8.63;;;5.62;;
76351;SDS011;65179;47.786;19.138;2023-04-15T07:19:01;10.80;;;5.80;;
76351;SDS011;65179;47.786;19.138;2023-04-15T07:21:27;10.10;;;5.80;;
76351;SDS011;65179;47.786;19.138;2023-04-15T07:23:53;8.48;;;4.87;;
76351;SDS011;65179;47.786;19.138;2023-04-15T07:26:19;7.00;;;4.47;;
76351;SDS011;65179;47.786;19.138;2023-04-15T07:28:44;7.05;;;4.95;;
76351;SDS011;65179;47.786;19.138;2023-04-15T07:31:11;8.10;;;4.30;;
76351;SDS011;65179;47.786;19.138;2023-04-15T07:33:37;6.72;;;3.90;;
76351;SDS011;65179;47.786;19.138;2023-04-15T07:36:02;8.83;;;4.33;;
76351;SDS011;65179;47.786;19.138;2023-04-15T07:38:28;7.10;;;4.30;;
76351;SDS011;65179;47.786;19.138;2023-04-15T07:40:53;6.43;;;3.80;;
76351;SDS011;65179;47.786;19.138;2023-04-15T07:43:19;7.12;;;4.12;;
76351;SDS011;65179;47.786;19.138;2023-04-15T07:45:45;7.40;;;3.80;;
76351;SDS011;65179;47.786;19.138;2023-04-15T07:48:10;6.85;;;4.10;;
76351;SDS011;65179;47.786;19.138;2023-04-15T07:50:36;5.80;;;3.27;;
76351;SDS011;65179;47.786;19.138;2023-04-15T07:53:02;6.50;;;3.77;;
76351;SDS011;65179;47.786;19.138;2023-04-15T07:55:27;8.02;;;4.28;;
76351;SDS011;65179;47.786;19.138;2023-04-15T07:57:54;7.45;;;4.32;;
76351;SDS011;65179;47.786;19.138;2023-04-15T08:00:20;6.70;;;3.90;;
76351;SDS011;65179;47.786;19.138;2023-04-15T08:02:46;6.12;;;4.18;;
76351;SDS011;65179;47.786;19.138;2023-04-15T08:05:12;7.35;;;3.60;;
76351;SDS011;65179;47.786;19.138;2023-04-15T08:07:39;6.50;;;3.43;;
76351;SDS011;65179;47.786;19.138;2023-04-15T08:10:05;5.70;;;3.35;;
76351;SDS011;65179;47.786;19.138;2023-04-15T08:12:31;5.75;;;3.60;;
76351;SDS011;65179;47.786;19.138;2023-04-15T08:14:56;6.73;;;3.93;;
76351;SDS011;65179;47.786;19.138;2023-04-15T08:17:22;6.20;;;3.73;;
76351;SDS011;65179;47.786;19.138;2023-04-15T08:19:48;7.15;;;3.72;;
76351;SDS011;65179;47.786;19.138;2023-04-15T08:22:14;5.83;;;3.30;;
76351;SDS011;65179;47.786;19.138;2023-04-15T08:24:39;6.32;;;3.20;;
76351;SDS011;65179;47.786;19.138;2023-04-15T08:27:05;5.90;;;3.60;;
76351;SDS011;65179;47.786;19.138;2023-04-15T08:29:31;6.40;;;3.58;;
76351;SDS011;65179;47.786;19.138;2023-04-15T08:32:01;5.20;;;3.40;;
76351;SDS011;65179;47.786;19.138;2023-04-15T08:34:26;7.80;;;3.28;;
76351;SDS011;65179;47.786;19.138;2023-04-15T08:36:52;4.75;;;2.85;;
76351;SDS011;65179;47.786;19.138;2023-04-15T08:39:17;5.73;;;3.43;;
76351;SDS011;65179;47.786;19.138;2023-04-15T08:42:18;7.73;;;3.13;;
76351;SDS011;65179;47.786;19.138;2023-04-15T08:44:43;5.45;;;3.10;;
76351;SDS011;65179;47.786;19.138;2023-04-15T08:47:11;5.85;;;3.03;;
76351;SDS011;65179;47.786;19.138;2023-04-15T08:49:42;5.35;;;3.50;;
76351;SDS011;65179;47.786;19.138;2023-04-15T08:52:08;4.57;;;2.92;;
76351;SDS011;65179;47.786;19.138;2023-04-15T08:54:34;5.40;;;3.43;;
76351;SDS011;65179;47.786;19.138;2023-04-15T08:57:00;5.57;;;2.58;;
76351;SDS011;65179;47.786;19.138;2023-04-15T08:59:29;4.50;;;2.33;;
76351;SDS011;65179;47.786;19.138;2023-04-15T09:01:56;5.55;;;2.90;;
76351;SDS011;65179;47.786;19.138;2023-04-15T09:04:22;5.03;;;2.67;;
76351;SDS011;65179;47.786;19.138;2023-04-15T09:06:47;6.50;;;3.00;;
76351;SDS011;65179;47.786;19.138;2023-04-15T09:09:13;5.57;;;2.70;;
76351;SDS011;65179;47.786;19.138;2023-04-15T09:11:38;5.10;;;2.60;;
76351;SDS011;65179;47.786;19.138;2023-04-15T09:14:04;6.40;;;2.75;;
76351;SDS011;65179;47.786;19.138;2023-04-15T09:16:30;5.03;;;2.97;;
76351;SDS011;65179;47.786;19.138;2023-04-15T09:18:55;5.05;;;2.40;;
76351;SDS011;65179;47.786;19.138;2023-04-15T09:21:21;5.05;;;2.62;;
76351;SDS011;65179;47.786;19.138;2023-04-15T09:23:54;4.12;;;2.35;;
76351;SDS011;65179;47.786;19.138;2023-04-15T09:26:55;4.87;;;2.50;;
76351;SDS011;65179;47.786;19.138;2023-04-15T09:29:18;5.18;;;2.20;;
76351;SDS011;65179;47.786;19.138;2023-04-15T09:31:44;4.07;;;2.00;;
76351;SDS011;65179;47.786;19.138;2023-04-15T09:34:09;4.75;;;1.80;;
76351;SDS011;65179;47.786;19.138;2023-04-15T09:37:08;3.83;;;2.10;;
76351;SDS011;65179;47.786;19.138;2023-04-15T09:39:27;4.47;;;1.80;;
76351;SDS011;65179;47.786;19.138;2023-04-15T09:42:20;3.83;;;1.80;;
76351;SDS011;65179;47.786;19.138;2023-04-15T09:44:49;6.90;;;1.80;;
76351;SDS011;65179;47.786;19.138;2023-04-15T09:47:38;3.97;;;1.57;;
76351;SDS011;65179;47.786;19.138;2023-04-15T09:50:02;4.03;;;1.62;;
76351;SDS011;65179;47.786;19.138;2023-04-15T09:52:28;3.78;;;1.40;;
76351;SDS011;65179;47.786;19.138;2023-04-15T09:54:56;3.35;;;1.00;;
76351;SDS011;65179;47.786;19.138;2023-04-15T09:57:23;3.45;;;1.23;;
76351;SDS011;65179;47.786;19.138;2023-04-15T09:59:50;2.87;;;0.82;;
76351;SDS011;65179;47.786;19.138;2023-04-15T10:02:17;3.67;;;1.30;;
76351;SDS011;65179;47.786;19.138;2023-04-15T10:04:44;3.40;;;1.20;;
76351;SDS011;65179;47.786;19.138;2023-04-15T10:07:12;3.65;;;1.20;;
76351;SDS011;65179;47.786;19.138;2023-04-15T10:09:39;5.22;;;1.45;;
76351;SDS011;65179;47.786;19.138;2023-04-15T10:12:05;2.95;;;1.10;;
76351;SDS011;65179;47.786;19.138;2023-04-15T10:14:31;3.25;;;1.15;;
76351;SDS011;65179;47.786;19.138;2023-04-15T10:17:00;3.85;;;1.00;;
76351;SDS011;65179;47.786;19.138;2023-04-15T10:19:26;3.78;;;1.27;;
76351;SDS011;65179;47.786;19.138;2023-04-15T10:21:58;4.40;;;1.40;;
76351;SDS011;65179;47.786;19.138;2023-04-15T10:24:24;2.95;;;1.00;;
76351;SDS011;65179;47.786;19.138;2023-04-15T10:26:51;4.37;;;1.42;;
76351;SDS011;65179;47.786;19.138;2023-04-15T10:29:18;4.32;;;1.10;;
76351;SDS011;65179;47.786;19.138;2023-04-15T10:31:44;4.95;;;1.00;;
76351;SDS011;65179;47.786;19.138;2023-04-15T10:34:11;2.62;;;0.90;;
76351;SDS011;65179;47.786;19.138;2023-04-15T10:36:37;4.72;;;1.20;;
76351;SDS011;65179;47.786;19.138;2023-04-15T10:39:37;2.53;;;0.80;;
76351;SDS011;65179;47.786;19.138;2023-04-15T10:42:15;2.62;;;0.75;;
76351;SDS011;65179;47.786;19.138;2023-04-15T10:44:55;2.60;;;0.90;;
76351;SDS011;65179;47.786;19.138;2023-04-15T10:47:21;3.10;;;1.00;;
76351;SDS011;65179;47.786;19.138;2023-04-15T10:49:47;2.87;;;0.85;;
76351;SDS011;65179;47.786;19.138;2023-04-15T10:52:14;2.60;;;0.80;;
76351;SDS011;65179;47.786;19.138;2023-04-15T10:54:48;3.08;;;1.10;;
76351;SDS011;65179;47.786;19.138;2023-04-15T10:57:15;2.80;;;1.00;;
76351;SDS011;65179;47.786;19.138;2023-04-15T10:59:58;3.60;;;1.00;;
76351;SDS011;65179;47.786;19.138;2023-04-15T11:05:19;3.53;;;1.50;;
76351;SDS011;65179;47.786;19.138;2023-04-15T11:12:42;4.25;;;2.10;;
76351;SDS011;65179;47.786;19.138;2023-04-15T11:17:57;3.90;;;2.03;;
76351;SDS011;65179;47.786;19.138;2023-04-15T11:21:03;4.20;;;1.90;;
76351;SDS011;65179;47.786;19.138;2023-04-15T11:23:36;3.45;;;1.20;;
76351;SDS011;65179;47.786;19.138;2023-04-15T11:26:08;3.55;;;1.60;;
76351;SDS011;65179;47.786;19.138;2023-04-15T11:28:36;4.37;;;1.42;;
76351;SDS011;65179;47.786;19.138;2023-04-15T11:31:08;4.90;;;1.60;;
76351;SDS011;65179;47.786;19.138;2023-04-15T11:33:37;3.97;;;1.60;;
76351;SDS011;65179;47.786;19.138;2023-04-15T11:36:09;3.95;;;1.65;;
76351;SDS011;65179;47.786;19.138;2023-04-15T11:38:35;3.10;;;1.30;;
76351;SDS011;65179;47.786;19.138;2023-04-15T11:41:01;4.62;;;1.50;;
76351;SDS011;65179;47.786;19.138;2023-04-15T11:43:27;3.25;;;1.58;;
76351;SDS011;65179;47.786;19.138;2023-04-15T11:45:57;3.10;;;1.27;;
76351;SDS011;65179;47.786;19.138;2023-04-15T11:48:24;3.05;;;1.30;;
76351;SDS011;65179;47.786;19.138;2023-04-15T11:50:52;5.00;;;0.88;;
76351;SDS011;65179;47.786;19.138;2023-04-15T11:53:19;2.65;;;0.82;;
76351;SDS011;65179;47.786;19.138;2023-04-15T11:55:51;2.70;;;0.90;;
76351;SDS011;65179;47.786;19.138;2023-04-15T11:58:21;2.33;;;0.80;;
76351;SDS011;65179;47.786;19.138;2023-04-15T12:00:52;2.60;;;0.90;;
76351;SDS011;65179;47.786;19.138;2023-04-15T12:03:23;2.90;;;1.08;;
76351;SDS011;65179;47.786;19.138;2023-04-15T12:08:55;2.62;;;0.70;;
76351;SDS011;65179;47.786;19.138;2023-04-15T12:14:23;2.47;;;0.60;;
76351;SDS011;65179;47.786;19.138;2023-04-15T12:16:51;4.30;;;0.80;;
76351;SDS011;65179;47.786;19.138;2023-04-15T12:19:24;2.75;;;1.08;;
76351;SDS011;65179;47.786;19.138;2023-04-15T12:22:03;2.72;;;1.00;;
76351;SDS011;65179;47.786;19.138;2023-04-15T12:24:33;3.90;;;1.70;;
76351;SDS011;65179;47.786;19.138;2023-04-15T12:29:33;3.70;;;0.80;;
76351;SDS011;65179;47.786;19.138;2023-04-15T12:32:04;3.08;;;0.90;;
76351;SDS011;65179;47.786;19.138;2023-04-15T12:34:33;2.50;;;0.70;;
76351;SDS011;65179;47.786;19.138;2023-04-15T12:37:00;3.30;;;0.80;;
76351;SDS011;65179;47.786;19.138;2023-04-15T12:39:27;2.42;;;0.62;;
76351;SDS011;65179;47.786;19.138;2023-04-15T12:41:55;2.42;;;0.62;;
76351;SDS011;65179;47.786;19.138;2023-04-15T12:44:23;2.37;;;0.50;;
76351;SDS011;65179;47.786;19.138;2023-04-15T12:46:49;4.97;;;1.60;;
76351;SDS011;65179;47.786;19.138;2023-04-15T12:49:16;3.00;;;0.93;;
76351;SDS011;65179;47.786;19.138;2023-04-15T12:51:44;2.87;;;0.80;;
76351;SDS011;65179;47.786;19.138;2023-04-15T12:54:12;2.90;;;0.80;;
76351;SDS011;65179;47.786;19.138;2023-04-15T12:56:37;2.50;;;0.70;;
76351;SDS011;65179;47.786;19.138;2023-04-15T12:59:02;4.10;;;0.90;;
76351;SDS011;65179;47.786;19.138;2023-04-15T13:01:28;2.53;;;0.83;;
76351;SDS011;65179;47.786;19.138;2023-04-15T13:03:53;2.70;;;0.80;;
76351;SDS011;65179;47.786;19.138;2023-04-15T13:06:19;5.40;;;0.60;;
76351;SDS011;65179;47.786;19.138;2023-04-15T13:08:45;2.80;;;0.60;;
76351;SDS011;65179;47.786;19.138;2023-04-15T13:11:11;2.95;;;0.77;;
76351;SDS011;65179;47.786;19.138;2023-04-15T13:13:36;3.30;;;1.50;;
76351;SDS011;65179;47.786;19.138;2023-04-15T13:16:02;2.60;;;0.70;;
76351;SDS011;65179;47.786;19.138;2023-04-15T13:18:27;2.73;;;0.90;;
76351;SDS011;65179;47.786;19.138;2023-04-15T13:20:55;2.45;;;0.70;;
76351;SDS011;65179;47.786;19.138;2023-04-15T13:23:20;2.85;;;1.05;;
76351;SDS011;65179;47.786;19.138;2023-04-15T13:25:46;2.50;;;0.63;;
76351;SDS011;65179;47.786;19.138;2023-04-15T13:28:11;2.40;;;0.50;;
76351;SDS011;65179;47.786;19.138;2023-04-15T13:30:37;3.03;;;0.83;;
76351;SDS011;65179;47.786;19.138;2023-04-15T13:33:03;2.60;;;0.62;;
76351;SDS011;65179;47.786;19.138;2023-04-15T13:35:30;2.70;;;0.80;;
76351;SDS011;65179;47.786;19.138;2023-04-15T13:37:58;2.20;;;0.60;;
76351;SDS011;65179;47.786;19.138;2023-04-15T13:40:24;2.50;;;0.70;;
76351;SDS011;65179;47.786;19.138;2023-04-15T13:42:50;2.28;;;0.60;;
76351;SDS011;65179;47.786;19.138;2023-04-15T13:45:17;2.50;;;0.80;;
76351;SDS011;65179;47.786;19.138;2023-04-15T13:47:43;2.95;;;0.80;;
76351;SDS011;65179;47.786;19.138;2023-04-15T13:50:08;2.85;;;0.70;;
76351;SDS011;65179;47.786;19.138;2023-04-15T13:52:34;2.90;;;1.00;;
76351;SDS011;65179;47.786;19.138;2023-04-15T13:55:00;3.25;;;1.20;;
76351;SDS011;65179;47.786;19.138;2023-04-15T13:57:25;2.57;;;0.63;;
76351;SDS011;65179;47.786;19.138;2023-04-15T13:59:51;2.53;;;0.70;;
76351;SDS011;65179;47.786;19.138;2023-04-15T14:02:16;2.72;;;0.90;;
76351;SDS011;65179;47.786;19.138;2023-04-15T14:04:42;2.55;;;0.90;;
76351;SDS011;65179;47.786;19.138;2023-04-15T14:07:07;3.97;;;1.60;;
76351;SDS011;65179;47.786;19.138;2023-04-15T14:09:33;3.30;;;1.30;;
76351;SDS011;65179;47.786;19.138;2023-04-15T14:11:59;3.17;;;1.27;;
76351;SDS011;65179;47.786;19.138;2023-04-15T14:14:25;3.92;;;1.40;;
76351;SDS011;65179;47.786;19.138;2023-04-15T14:16:51;3.77;;;1.23;;
76351;SDS011;65179;47.786;19.138;2023-04-15T14:19:17;3.00;;;1.10;;
76351;SDS011;65179;47.786;19.138;2023-04-15T14:21:42;3.17;;;1.20;;
76351;SDS011;65179;47.786;19.138;2023-04-15T14:24:07;3.67;;;1.30;;
76351;SDS011;65179;47.786;19.138;2023-04-15T14:26:33;3.65;;;1.48;;
76351;SDS011;65179;47.786;19.138;2023-04-15T14:28:59;3.70;;;1.50;;
76351;SDS011;65179;47.786;19.138;2023-04-15T14:31:25;3.35;;;1.30;;
76351;SDS011;65179;47.786;19.138;2023-04-15T14:33:50;4.33;;;1.30;;
76351;SDS011;65179;47.786;19.138;2023-04-15T14:36:15;3.50;;;1.40;;
76351;SDS011;65179;47.786;19.138;2023-04-15T14:38:41;3.15;;;1.33;;
76351;SDS011;65179;47.786;19.138;2023-04-15T14:41:06;4.80;;;1.60;;
76351;SDS011;65179;47.786;19.138;2023-04-15T14:43:32;4.90;;;1.40;;
76351;SDS011;65179;47.786;19.138;2023-04-15T14:45:58;4.70;;;1.45;;
76351;SDS011;65179;47.786;19.138;2023-04-15T14:48:24;4.32;;;1.77;;